sensor_id;sensor_type;location;lat;lon;timestamp;pressure;altitude;pressure_sealevel;temperature;humidity
30598;BME280;17365;48.878;8.334;2024-01-07T00:01:37;99615.34;;;5.34;100.00
30598;BME280;17365;48.878;8.334;2024-01-07T00:04:03;99614.94;;;5.08;100.00
30598;BME280;17365;48.878;8.334;2024-01-07T00:06:28;99610.75;;;5.13;100.00
30598;BME280;17365;48.878;8.334;2024-01-07T00:08:53;99624.34;;;5.07;100.00
30598;BME280;17365;48.878;8.334;2024-01-07T00:11:19;99620.31;;;5.21;100.00
30598;BME280;17365;48.878;8.334;2024-01-07T00:13:45;99628.84;;;5.20;100.00
30598;BME280;17365;48.878;8.334;2024-01-07T00:16:10;99621.06;;;5.16;100.00
30598;BME280;17365;48.878;8.334;2024-01-07T00:18:35;99624.78;;;5.35;100.00
30598;BME280;17365;48.878;8.334;2024-01-07T00:21:01;99628.53;;;4.99;100.00
30598;BME280;17365;48.878;8.334;2024-01-07T00:23:26;99623.09;;;5.37;100.00
30598;BME280;17365;48.878;8.334;2024-01-07T00:25:51;99626.34;;;5.25;100.00
30598;BME280;17365;48.878;8.334;2024-01-07T00:28:16;99632.25;;;5.19;100.00
30598;BME280;17365;48.878;8.334;2024-01-07T00:30:42;99626.00;;;5.02;100.00
30598;BME280;17365;48.878;8.334;2024-01-07T00:33:07;99627.00;;;5.10;100.00
30598;BME280;17365;48.878;8.334;2024-01-07T00:35:32;99630.34;;;5.06;100.00
30598;BME280;17365;48.878;8.334;2024-01-07T00:37:58;99627.41;;;5.39;100.00
30598;BME280;17365;48.878;8.334;2024-01-07T00:40:23;99630.81;;;5.37;100.00
30598;BME280;17365;48.878;8.334;2024-01-07T00:42:48;99625.69;;;5.37;100.00
30598;BME280;17365;48.878;8.334;2024-01-07T00:45:14;99625.00;;;5.48;100.00
30598;BME280;17365;48.878;8.334;2024-01-07T00:47:39;99631.09;;;5.55;100.00
30598;BME280;17365;48.878;8.334;2024-01-07T00:50:04;99634.38;;;5.45;100.00
30598;BME280;17365;48.878;8.334;2024-01-07T00:52:29;99643.50;;;5.26;100.00
30598;BME280;17365;48.878;8.334;2024-01-07T00:54:55;99642.97;;;5.45;100.00
30598;BME280;17365;48.878;8.334;2024-01-07T00:57:21;99637.84;;;4.94;100.00
30598;BME280;17365;48.878;8.334;2024-01-07T00:59:47;99641.78;;;5.25;100.00
30598;BME280;17365;48.878;8.334;2024-01-07T01:02:12;99638.34;;;5.23;100.00
30598;BME280;17365;48.878;8.334;2024-01-07T01:04:40;99636.78;;;5.34;100.00
30598;BME280;17365;48.878;8.334;2024-01-07T01:07:05;99635.25;;;5.45;100.00
30598;BME280;17365;48.878;8.334;2024-01-07T01:09:32;99630.34;;;5.64;100.00
30598;BME280;17365;48.878;8.334;2024-01-07T01:11:57;99641.91;;;5.33;100.00
30598;BME280;17365;48.878;8.334;2024-01-07T01:14:22;99642.03;;;5.43;100.00
30598;BME280;17365;48.878;8.334;2024-01-07T01:16:48;99638.34;;;5.24;100.00
30598;BME280;17365;48.878;8.334;2024-01-07T01:19:13;99639.75;;;5.62;100.00
30598;BME280;17365;48.878;8.334;2024-01-07T01:21:38;99638.19;;;5.15;100.00
30598;BME280;17365;48.878;8.334;2024-01-07T01:24:04;99647.72;;;5.21;100.00
30598;BME280;17365;48.878;8.334;2024-01-07T01:26:29;99639.88;;;5.12;100.00
30598;BME280;17365;48.878;8.334;2024-01-07T01:28:54;99652.28;;;5.39;100.00
30598;BME280;17365;48.878;8.334;2024-01-07T01:31:19;99656.97;;;5.10;100.00
30598;BME280;17365;48.878;8.334;2024-01-07T01:33:44;99648.72;;;5.32;100.00
30598;BME280;17365;48.878;8.334;2024-01-07T01:36:09;99655.84;;;5.48;100.00
30598;BME280;17365;48.878;8.334;2024-01-07T01:38:35;99655.53;;;5.27;100.00
30598;BME280;17365;48.878;8.334;2024-01-07T01:41:00;99659.47;;;5.05;100.00
30598;BME280;17365;48.878;8.334;2024-01-07T01:43:28;99656.09;;;5.09;100.00
30598;BME280;17365;48.878;8.334;2024-01-07T01:45:54;99661.34;;;5.15;100.00
30598;BME280;17365;48.878;8.334;2024-01-07T01:48:19;99652.91;;;5.22;100.00
30598;BME280;17365;48.878;8.334;2024-01-07T01:50:45;99652.59;;;5.04;100.00
30598;BME280;17365;48.878;8.334;2024-01-07T01:53:11;99662.53;;;4.84;100.00
30598;BME280;17365;48.878;8.334;2024-01-07T01:55:36;99661.22;;;5.08;100.00
30598;BME280;17365;48.878;8.334;2024-01-07T01:58:02;99663.19;;;5.22;100.00
30598;BME280;17365;48.878;8.334;2024-01-07T02:00:29;99667.31;;;5.14;100.00
30598;BME280;17365;48.878;8.334;2024-01-07T02:02:54;99666.44;;;4.64;100.00
30598;BME280;17365;48.878;8.334;2024-01-07T02:05:19;99665.66;;;5.18;100.00
30598;BME280;17365;48.878;8.334;2024-01-07T02:07:44;99669.28;;;5.31;100.00
30598;BME280;17365;48.878;8.334;2024-01-07T02:10:10;99664.28;;;5.40;100.00
30598;BME280;17365;48.878;8.334;2024-01-07T02:12:35;99663.34;;;4.82;100.00
30598;BME280;17365;48.878;8.334;2024-01-07T02:15:00;99668.34;;;4.74;100.00
30598;BME280;17365;48.878;8.334;2024-01-07T02:17:25;99667.47;;;5.23;100.00
30598;BME280;17365;48.878;8.334;2024-01-07T02:19:51;99667.59;;;5.31;100.00
30598;BME280;17365;48.878;8.334;2024-01-07T02:22:16;99670.91;;;5.24;100.00
30598;BME280;17365;48.878;8.334;2024-01-07T02:24:41;99674.06;;;5.08;100.00
30598;BME280;17365;48.878;8.334;2024-01-07T02:27:06;99675.28;;;4.78;100.00
30598;BME280;17365;48.878;8.334;2024-01-07T02:29:32;99676.25;;;4.86;100.00
30598;BME280;17365;48.878;8.334;2024-01-07T02:31:57;99672.91;;;4.89;100.00
30598;BME280;17365;48.878;8.334;2024-01-07T02:34:22;99671.53;;;4.61;100.00
30598;BME280;17365;48.878;8.334;2024-01-07T02:36:47;99673.53;;;4.76;100.00
30598;BME280;17365;48.878;8.334;2024-01-07T02:39:13;99673.16;;;5.04;100.00
30598;BME280;17365;48.878;8.334;2024-01-07T02:41:38;99673.66;;;4.85;100.00
30598;BME280;17365;48.878;8.334;2024-01-07T02:44:03;99676.47;;;4.50;100.00
30598;BME280;17365;48.878;8.334;2024-01-07T02:46:30;99670.47;;;4.50;100.00
30598;BME280;17365;48.878;8.334;2024-01-07T02:48:55;99675.94;;;4.68;100.00
30598;BME280;17365;48.878;8.334;2024-01-07T02:51:20;99670.00;;;4.72;100.00
30598;BME280;17365;48.878;8.334;2024-01-07T02:53:45;99671.47;;;4.58;100.00
30598;BME280;17365;48.878;8.334;2024-01-07T02:56:10;99672.56;;;4.71;100.00
30598;BME280;17365;48.878;8.334;2024-01-07T02:58:35;99671.44;;;5.03;100.00
30598;BME280;17365;48.878;8.334;2024-01-07T03:01:01;99673.56;;;4.79;100.00
30598;BME280;17365;48.878;8.334;2024-01-07T03:03:26;99673.59;;;4.80;100.00
30598;BME280;17365;48.878;8.334;2024-01-07T03:05:51;99678.03;;;4.89;100.00
30598;BME280;17365;48.878;8.334;2024-01-07T03:08:16;99673.47;;;4.74;100.00
30598;BME280;17365;48.878;8.334;2024-01-07T03:10:41;99676.25;;;4.85;100.00
30598;BME280;17365;48.878;8.334;2024-01-07T03:13:07;99675.28;;;4.78;100.00
30598;BME280;17365;48.878;8.334;2024-01-07T03:15:32;99679.69;;;4.87;100.00
30598;BME280;17365;48.878;8.334;2024-01-07T03:17:57;99678.53;;;4.70;100.00
30598;BME280;17365;48.878;8.334;2024-01-07T03:20:22;99674.63;;;4.90;100.00
30598;BME280;17365;48.878;8.334;2024-01-07T03:22:47;99678.34;;;4.59;100.00
30598;BME280;17365;48.878;8.334;2024-01-07T03:25:13;99675.34;;;4.83;100.00
30598;BME280;17365;48.878;8.334;2024-01-07T03:27:38;99677.47;;;5.07;100.00
30598;BME280;17365;48.878;8.334;2024-01-07T03:30:03;99677.00;;;4.79;100.00
30598;BME280;17365;48.878;8.334;2024-01-07T03:32:29;99680.53;;;4.41;100.00
30598;BME280;17365;48.878;8.334;2024-01-07T03:34:54;99683.22;;;4.45;100.00
30598;BME280;17365;48.878;8.334;2024-01-07T03:37:19;99679.47;;;4.75;100.00
30598;BME280;17365;48.878;8.334;2024-01-07T03:39:47;99682.19;;;4.82;100.00
30598;BME280;17365;48.878;8.334;2024-01-07T03:42:12;99681.28;;;4.79;100.00
30598;BME280;17365;48.878;8.334;2024-01-07T03:44:38;99683.19;;;4.90;100.00
30598;BME280;17365;48.878;8.334;2024-01-07T03:47:04;99681.88;;;5.14;100.00
30598;BME280;17365;48.878;8.334;2024-01-07T03:49:29;99678.94;;;4.91;100.00
30598;BME280;17365;48.878;8.334;2024-01-07T03:51:54;99688.25;;;4.86;100.00
30598;BME280;17365;48.878;8.334;2024-01-07T03:54:19;99683.75;;;4.74;100.00
30598;BME280;17365;48.878;8.334;2024-01-07T03:56:44;99693.47;;;4.89;100.00
30598;BME280;17365;48.878;8.334;2024-01-07T03:59:10;99692.31;;;4.73;100.00
30598;BME280;17365;48.878;8.334;2024-01-07T04:01:35;99696.41;;;4.63;100.00
30598;BME280;17365;48.878;8.334;2024-01-07T04:04:00;99695.41;;;5.04;100.00
30598;BME280;17365;48.878;8.334;2024-01-07T04:06:25;99697.56;;;5.29;100.00
30598;BME280;17365;48.878;8.334;2024-01-07T04:08:50;99704.16;;;5.12;100.00
30598;BME280;17365;48.878;8.334;2024-01-07T04:11:15;99704.38;;;5.25;100.00
30598;BME280;17365;48.878;8.334;2024-01-07T04:13:41;99700.69;;;5.10;100.00
30598;BME280;17365;48.878;8.334;2024-01-07T04:16:06;99701.06;;;5.33;100.00
30598;BME280;17365;48.878;8.334;2024-01-07T04:18:40;99707.44;;;5.05;100.00
30598;BME280;17365;48.878;8.334;2024-01-07T04:21:05;99705.53;;;4.93;100.00
30598;BME280;17365;48.878;8.334;2024-01-07T04:23:33;99708.09;;;4.94;100.00
30598;BME280;17365;48.878;8.334;2024-01-07T04:25:59;99699.16;;;5.21;100.00
30598;BME280;17365;48.878;8.334;2024-01-07T04:28:24;99703.78;;;4.92;100.00
30598;BME280;17365;48.878;8.334;2024-01-07T04:30:49;99713.59;;;5.14;100.00
30598;BME280;17365;48.878;8.334;2024-01-07T04:33:14;99714.72;;;4.80;100.00
30598;BME280;17365;48.878;8.334;2024-01-07T04:35:40;99709.19;;;5.07;100.00
30598;BME280;17365;48.878;8.334;2024-01-07T04:38:05;99706.34;;;4.90;100.00
30598;BME280;17365;48.878;8.334;2024-01-07T04:40:30;99716.84;;;5.04;100.00
30598;BME280;17365;48.878;8.334;2024-01-07T04:42:55;99723.44;;;4.88;100.00
30598;BME280;17365;48.878;8.334;2024-01-07T04:45:20;99727.50;;;4.76;100.00
30598;BME280;17365;48.878;8.334;2024-01-07T04:47:45;99728.63;;;4.46;100.00
30598;BME280;17365;48.878;8.334;2024-01-07T04:50:11;99728.38;;;4.78;100.00
30598;BME280;17365;48.878;8.334;2024-01-07T04:52:36;99732.41;;;4.65;100.00
30598;BME280;17365;48.878;8.334;2024-01-07T04:55:01;99733.31;;;4.67;100.00
30598;BME280;17365;48.878;8.334;2024-01-07T04:57:27;99734.44;;;4.83;100.00
30598;BME280;17365;48.878;8.334;2024-01-07T04:59:52;99733.53;;;4.35;100.00
30598;BME280;17365;48.878;8.334;2024-01-07T05:02:17;99734.13;;;4.64;100.00
30598;BME280;17365;48.878;8.334;2024-01-07T05:04:42;99734.41;;;4.36;100.00
30598;BME280;17365;48.878;8.334;2024-01-07T05:07:08;99737.66;;;4.71;100.00
30598;BME280;17365;48.878;8.334;2024-01-07T05:09:33;99745.22;;;4.63;100.00
30598;BME280;17365;48.878;8.334;2024-01-07T05:11:58;99740.22;;;4.71;100.00
30598;BME280;17365;48.878;8.334;2024-01-07T05:14:24;99739.44;;;4.75;100.00
30598;BME280;17365;48.878;8.334;2024-01-07T05:16:49;99742.56;;;4.59;100.00
30598;BME280;17365;48.878;8.334;2024-01-07T05:19:14;99744.25;;;4.57;100.00
30598;BME280;17365;48.878;8.334;2024-01-07T05:21:39;99746.28;;;4.75;100.00
30598;BME280;17365;48.878;8.334;2024-01-07T05:24:05;99741.28;;;4.82;100.00
30598;BME280;17365;48.878;8.334;2024-01-07T05:26:30;99743.72;;;4.75;100.00
30598;BME280;17365;48.878;8.334;2024-01-07T05:28:55;99747.97;;;4.73;100.00
30598;BME280;17365;48.878;8.334;2024-01-07T05:31:20;99750.78;;;4.86;100.00
30598;BME280;17365;48.878;8.334;2024-01-07T05:33:46;99748.03;;;4.76;100.00
30598;BME280;17365;48.878;8.334;2024-01-07T05:36:11;99754.81;;;4.74;100.00
30598;BME280;17365;48.878;8.334;2024-01-07T05:38:37;99753.88;;;4.67;100.00
30598;BME280;17365;48.878;8.334;2024-01-07T05:41:02;99755.56;;;4.66;100.00
30598;BME280;17365;48.878;8.334;2024-01-07T05:43:27;99756.47;;;4.68;100.00
30598;BME280;17365;48.878;8.334;2024-01-07T05:45:52;99760.34;;;4.50;100.00
30598;BME280;17365;48.878;8.334;2024-01-07T05:48:18;99762.78;;;4.42;100.00
30598;BME280;17365;48.878;8.334;2024-01-07T05:50:43;99768.09;;;4.51;100.00
30598;BME280;17365;48.878;8.334;2024-01-07T05:53:09;99766.09;;;4.79;100.00
30598;BME280;17365;48.878;8.334;2024-01-07T05:55:34;99767.97;;;4.87;100.00
30598;BME280;17365;48.878;8.334;2024-01-07T05:57:59;99766.34;;;4.92;100.00
30598;BME280;17365;48.878;8.334;2024-01-07T06:00:24;99768.84;;;4.88;100.00
30598;BME280;17365;48.878;8.334;2024-01-07T06:02:49;99764.50;;;4.87;100.00
30598;BME280;17365;48.878;8.334;2024-01-07T06:05:15;99777.44;;;4.90;100.00
30598;BME280;17365;48.878;8.334;2024-01-07T06:07:40;99764.00;;;5.06;100.00
30598;BME280;17365;48.878;8.334;2024-01-07T06:10:05;99775.84;;;4.98;100.00
30598;BME280;17365;48.878;8.334;2024-01-07T06:12:31;99776.03;;;5.07;100.00
30598;BME280;17365;48.878;8.334;2024-01-07T06:14:56;99774.84;;;4.88;100.00
30598;BME280;17365;48.878;8.334;2024-01-07T06:17:21;99770.38;;;4.80;100.00
30598;BME280;17365;48.878;8.334;2024-01-07T06:19:46;99780.06;;;4.93;100.00
30598;BME280;17365;48.878;8.334;2024-01-07T06:22:12;99789.38;;;4.88;100.00
30598;BME280;17365;48.878;8.334;2024-01-07T06:24:37;99787.63;;;4.87;100.00
30598;BME280;17365;48.878;8.334;2024-01-07T06:27:02;99794.16;;;4.70;100.00
30598;BME280;17365;48.878;8.334;2024-01-07T06:29:29;99786.75;;;4.85;100.00
30598;BME280;17365;48.878;8.334;2024-01-07T06:31:54;99802.69;;;4.68;100.00
30598;BME280;17365;48.878;8.334;2024-01-07T06:34:19;99799.16;;;4.63;100.00
30598;BME280;17365;48.878;8.334;2024-01-07T06:36:44;99803.75;;;4.78;100.00
30598;BME280;17365;48.878;8.334;2024-01-07T06:39:09;99806.47;;;4.44;100.00
30598;BME280;17365;48.878;8.334;2024-01-07T06:41:35;99807.19;;;4.79;100.00
30598;BME280;17365;48.878;8.334;2024-01-07T06:44:00;99805.03;;;4.56;100.00
30598;BME280;17365;48.878;8.334;2024-01-07T06:46:25;99815.41;;;4.62;100.00
30598;BME280;17365;48.878;8.334;2024-01-07T06:48:50;99819.09;;;4.75;100.00
30598;BME280;17365;48.878;8.334;2024-01-07T06:51:16;99816.50;;;4.33;100.00
30598;BME280;17365;48.878;8.334;2024-01-07T06:53:41;99816.44;;;4.71;100.00
30598;BME280;17365;48.878;8.334;2024-01-07T06:56:06;99817.19;;;4.65;100.00
30598;BME280;17365;48.878;8.334;2024-01-07T06:58:31;99822.47;;;4.73;100.00
30598;BME280;17365;48.878;8.334;2024-01-07T07:00:57;99833.50;;;4.67;100.00
30598;BME280;17365;48.878;8.334;2024-01-07T07:03:22;99837.19;;;4.80;100.00
30598;BME280;17365;48.878;8.334;2024-01-07T07:05:47;99840.53;;;4.76;100.00
30598;BME280;17365;48.878;8.334;2024-01-07T07:08:12;99835.19;;;4.65;100.00
30598;BME280;17365;48.878;8.334;2024-01-07T07:10:38;99839.75;;;4.80;100.00
30598;BME280;17365;48.878;8.334;2024-01-07T07:13:03;99845.63;;;4.74;100.00
30598;BME280;17365;48.878;8.334;2024-01-07T07:15:28;99842.31;;;4.78;100.00
30598;BME280;17365;48.878;8.334;2024-01-07T07:17:53;99848.19;;;4.74;100.00
30598;BME280;17365;48.878;8.334;2024-01-07T07:20:19;99843.16;;;4.79;100.00
30598;BME280;17365;48.878;8.334;2024-01-07T07:22:44;99848.78;;;5.02;100.00
30598;BME280;17365;48.878;8.334;2024-01-07T07:25:09;99854.72;;;4.99;100.00
30598;BME280;17365;48.878;8.334;2024-01-07T07:27:35;99859.59;;;4.87;100.00
30598;BME280;17365;48.878;8.334;2024-01-07T07:30:00;99863.13;;;4.92;100.00
30598;BME280;17365;48.878;8.334;2024-01-07T07:32:25;99861.50;;;4.97;100.00
30598;BME280;17365;48.878;8.334;2024-01-07T07:34:50;99861.84;;;4.72;100.00
30598;BME280;17365;48.878;8.334;2024-01-07T07:37:15;99871.47;;;4.80;100.00
30598;BME280;17365;48.878;8.334;2024-01-07T07:39:40;99871.50;;;4.82;100.00
30598;BME280;17365;48.878;8.334;2024-01-07T07:42:06;99866.63;;;4.95;100.00
30598;BME280;17365;48.878;8.334;2024-01-07T07:44:31;99872.50;;;4.88;100.00
30598;BME280;17365;48.878;8.334;2024-01-07T07:46:56;99872.81;;;5.04;100.00
30598;BME280;17365;48.878;8.334;2024-01-07T07:49:21;99870.91;;;4.95;100.00
30598;BME280;17365;48.878;8.334;2024-01-07T07:51:46;99872.16;;;4.73;100.00
30598;BME280;17365;48.878;8.334;2024-01-07T07:54:12;99875.41;;;4.64;100.00
30598;BME280;17365;48.878;8.334;2024-01-07T07:56:37;99880.91;;;4.81;100.00
30598;BME280;17365;48.878;8.334;2024-01-07T07:59:02;99874.13;;;4.85;100.00
30598;BME280;17365;48.878;8.334;2024-01-07T08:01:28;99875.72;;;4.80;100.00
30598;BME280;17365;48.878;8.334;2024-01-07T08:03:53;99876.41;;;4.71;100.00
30598;BME280;17365;48.878;8.334;2024-01-07T08:06:18;99884.53;;;4.91;100.00
30598;BME280;17365;48.878;8.334;2024-01-07T08:08:44;99881.03;;;4.87;100.00
30598;BME280;17365;48.878;8.334;2024-01-07T08:11:10;99880.84;;;4.78;100.00
30598;BME280;17365;48.878;8.334;2024-01-07T08:13:35;99883.28;;;4.74;100.00
30598;BME280;17365;48.878;8.334;2024-01-07T08:16:01;99886.66;;;4.70;100.00
30598;BME280;17365;48.878;8.334;2024-01-07T08:18:26;99891.53;;;4.57;100.00
30598;BME280;17365;48.878;8.334;2024-01-07T08:20:51;99892.47;;;4.62;100.00
30598;BME280;17365;48.878;8.334;2024-01-07T08:23:17;99892.66;;;4.31;100.00
30598;BME280;17365;48.878;8.334;2024-01-07T08:25:42;99895.38;;;4.76;100.00
30598;BME280;17365;48.878;8.334;2024-01-07T08:28:07;99898.91;;;4.83;100.00
30598;BME280;17365;48.878;8.334;2024-01-07T08:30:32;99903.34;;;4.88;100.00
30598;BME280;17365;48.878;8.334;2024-01-07T08:32:57;99900.91;;;4.96;100.00
30598;BME280;17365;48.878;8.334;2024-01-07T08:35:23;99903.84;;;4.34;100.00
30598;BME280;17365;48.878;8.334;2024-01-07T08:37:48;99916.31;;;4.55;100.00
30598;BME280;17365;48.878;8.334;2024-01-07T08:40:14;99930.97;;;4.61;100.00
30598;BME280;17365;48.878;8.334;2024-01-07T08:42:40;99921.50;;;4.58;100.00
30598;BME280;17365;48.878;8.334;2024-01-07T08:45:05;99923.06;;;4.52;100.00
30598;BME280;17365;48.878;8.334;2024-01-07T08:47:30;99917.25;;;4.59;100.00
30598;BME280;17365;48.878;8.334;2024-01-07T08:49:56;99917.66;;;4.77;100.00
30598;BME280;17365;48.878;8.334;2024-01-07T08:52:21;99917.81;;;4.85;100.00
30598;BME280;17365;48.878;8.334;2024-01-07T08:54:47;99921.19;;;4.82;100.00
30598;BME280;17365;48.878;8.334;2024-01-07T08:57:12;99925.59;;;4.88;100.00
30598;BME280;17365;48.878;8.334;2024-01-07T08:59:38;99920.72;;;5.00;100.00
30598;BME280;17365;48.878;8.334;2024-01-07T09:02:03;99928.44;;;5.00;100.00
30598;BME280;17365;48.878;8.334;2024-01-07T09:04:28;99928.53;;;5.06;100.00
30598;BME280;17365;48.878;8.334;2024-01-07T09:06:53;99930.38;;;5.12;100.00
30598;BME280;17365;48.878;8.334;2024-01-07T09:09:18;99932.88;;;5.09;100.00
30598;BME280;17365;48.878;8.334;2024-01-07T09:11:43;99933.81;;;5.12;100.00
30598;BME280;17365;48.878;8.334;2024-01-07T09:14:09;99938.63;;;4.97;100.00
30598;BME280;17365;48.878;8.334;2024-01-07T09:16:34;99939.69;;;5.07;100.00
30598;BME280;17365;48.878;8.334;2024-01-07T09:18:59;99936.59;;;4.82;100.00
30598;BME280;17365;48.878;8.334;2024-01-07T09:21:24;99935.09;;;4.92;100.00
30598;BME280;17365;48.878;8.334;2024-01-07T09:23:50;99942.84;;;4.93;100.00
30598;BME280;17365;48.878;8.334;2024-01-07T09:26:15;99941.53;;;4.73;100.00
30598;BME280;17365;48.878;8.334;2024-01-07T09:28:41;99949.09;;;5.06;100.00
30598;BME280;17365;48.878;8.334;2024-01-07T09:31:07;99944.41;;;4.87;100.00
30598;BME280;17365;48.878;8.334;2024-01-07T09:33:33;99952.53;;;5.05;100.00
30598;BME280;17365;48.878;8.334;2024-01-07T09:35:58;99957.88;;;5.16;100.00
30598;BME280;17365;48.878;8.334;2024-01-07T09:38:23;99964.06;;;4.85;100.00
30598;BME280;17365;48.878;8.334;2024-01-07T09:40:50;99960.50;;;5.17;100.00
30598;BME280;17365;48.878;8.334;2024-01-07T09:43:15;99964.47;;;5.03;100.00
30598;BME280;17365;48.878;8.334;2024-01-07T09:45:41;99960.72;;;5.28;100.00
30598;BME280;17365;48.878;8.334;2024-01-07T09:48:07;99958.97;;;5.27;100.00
30598;BME280;17365;48.878;8.334;2024-01-07T09:50:32;99962.34;;;5.23;100.00
30598;BME280;17365;48.878;8.334;2024-01-07T09:52:57;99963.44;;;5.36;100.00
30598;BME280;17365;48.878;8.334;2024-01-07T09:55:26;99956.56;;;5.35;100.00
30598;BME280;17365;48.878;8.334;2024-01-07T09:57:53;99963.00;;;5.14;100.00
30598;BME280;17365;48.878;8.334;2024-01-07T10:00:19;99966.72;;;5.29;100.00
30598;BME280;17365;48.878;8.334;2024-01-07T10:02:45;99964.00;;;5.21;100.00
30598;BME280;17365;48.878;8.334;2024-01-07T10:05:10;99967.94;;;5.05;100.00
30598;BME280;17365;48.878;8.334;2024-01-07T10:07:35;99967.84;;;5.41;100.00
30598;BME280;17365;48.878;8.334;2024-01-07T10:10:16;99968.22;;;5.19;100.00
30598;BME280;17365;48.878;8.334;2024-01-07T10:12:43;99973.59;;;4.89;100.00
30598;BME280;17365;48.878;8.334;2024-01-07T10:15:08;99969.69;;;5.06;100.00
30598;BME280;17365;48.878;8.334;2024-01-07T10:17:34;99965.28;;;5.01;100.00
30598;BME280;17365;48.878;8.334;2024-01-07T10:19:59;99969.69;;;5.06;100.00
30598;BME280;17365;48.878;8.334;2024-01-07T10:22:24;99965.63;;;5.17;100.00
30598;BME280;17365;48.878;8.334;2024-01-07T10:24:50;99967.00;;;5.00;100.00
30598;BME280;17365;48.878;8.334;2024-01-07T10:27:16;99967.47;;;5.23;100.00
30598;BME280;17365;48.878;8.334;2024-01-07T10:29:41;99977.63;;;5.17;100.00
30598;BME280;17365;48.878;8.334;2024-01-07T10:32:07;99964.81;;;5.20;100.00
30598;BME280;17365;48.878;8.334;2024-01-07T10:34:33;99973.88;;;5.01;100.00
30598;BME280;17365;48.878;8.334;2024-01-07T10:36:59;99973.28;;;5.14;100.00
30598;BME280;17365;48.878;8.334;2024-01-07T10:39:25;99968.19;;;5.17;100.00
30598;BME280;17365;48.878;8.334;2024-01-07T10:41:50;99971.41;;;5.07;100.00
30598;BME280;17365;48.878;8.334;2024-01-07T10:44:18;99975.03;;;5.17;100.00
30598;BME280;17365;48.878;8.334;2024-01-07T10:46:44;99973.38;;;5.19;100.00
30598;BME280;17365;48.878;8.334;2024-01-07T10:49:19;99971.88;;;5.29;100.00
30598;BME280;17365;48.878;8.334;2024-01-07T10:51:44;99964.38;;;5.39;100.00
30598;BME280;17365;48.878;8.334;2024-01-07T10:54:10;99972.00;;;5.35;100.00
30598;BME280;17365;48.878;8.334;2024-01-07T10:56:45;99976.13;;;5.28;100.00
30598;BME280;17365;48.878;8.334;2024-01-07T10:59:11;99972.19;;;5.44;100.00
30598;BME280;17365;48.878;8.334;2024-01-07T11:01:36;99976.88;;;5.21;100.00
30598;BME280;17365;48.878;8.334;2024-01-07T11:04:10;99981.88;;;5.15;100.00
30598;BME280;17365;48.878;8.334;2024-01-07T11:06:42;99986.16;;;5.14;100.00
30598;BME280;17365;48.878;8.334;2024-01-07T11:11:45;99988.16;;;4.88;100.00
30598;BME280;17365;48.878;8.334;2024-01-07T11:16:54;99985.84;;;5.01;100.00
30598;BME280;17365;48.878;8.334;2024-01-07T11:19:20;99994.00;;;4.83;100.00
30598;BME280;17365;48.878;8.334;2024-01-07T11:21:45;99995.63;;;4.78;100.00
30598;BME280;17365;48.878;8.334;2024-01-07T11:24:13;99993.59;;;5.02;100.00
30598;BME280;17365;48.878;8.334;2024-01-07T11:26:57;99991.44;;;4.83;100.00
30598;BME280;17365;48.878;8.334;2024-01-07T11:29:26;99993.03;;;4.78;100.00
30598;BME280;17365;48.878;8.334;2024-01-07T11:31:51;99994.19;;;4.90;100.00
30598;BME280;17365;48.878;8.334;2024-01-07T11:37:01;99994.34;;;4.98;100.00
30598;BME280;17365;48.878;8.334;2024-01-07T11:39:26;100003.59;;;4.90;100.00
30598;BME280;17365;48.878;8.334;2024-01-07T11:41:52;99994.88;;;4.83;100.00
30598;BME280;17365;48.878;8.334;2024-01-07T11:44:17;99993.72;;;5.08;100.00
30598;BME280;17365;48.878;8.334;2024-01-07T11:46:42;99994.66;;;5.12;100.00
30598;BME280;17365;48.878;8.334;2024-01-07T11:49:08;99996.03;;;4.97;100.00
30598;BME280;17365;48.878;8.334;2024-01-07T11:51:33;99994.81;;;5.19;100.00
30598;BME280;17365;48.878;8.334;2024-01-07T11:54:00;100006.06;;;4.85;100.00
30598;BME280;17365;48.878;8.334;2024-01-07T11:56:26;99992.25;;;5.19;100.00
30598;BME280;17365;48.878;8.334;2024-01-07T11:58:51;99990.25;;;5.06;100.00
30598;BME280;17365;48.878;8.334;2024-01-07T12:01:16;99998.56;;;4.94;100.00
30598;BME280;17365;48.878;8.334;2024-01-07T12:03:45;99992.25;;;5.19;100.00
30598;BME280;17365;48.878;8.334;2024-01-07T12:06:10;100000.72;;;5.15;100.00
30598;BME280;17365;48.878;8.334;2024-01-07T12:08:39;99999.22;;;5.23;100.00
30598;BME280;17365;48.878;8.334;2024-01-07T12:11:04;100003.53;;;5.26;100.00
30598;BME280;17365;48.878;8.334;2024-01-07T12:13:30;100014.22;;;5.05;100.00
30598;BME280;17365;48.878;8.334;2024-01-07T12:15:56;100011.88;;;4.77;100.00
30598;BME280;17365;48.878;8.334;2024-01-07T12:18:21;100014.03;;;4.97;100.00
30598;BME280;17365;48.878;8.334;2024-01-07T12:20:56;100009.25;;;5.13;100.00
30598;BME280;17365;48.878;8.334;2024-01-07T12:23:22;100014.16;;;5.02;100.00
30598;BME280;17365;48.878;8.334;2024-01-07T12:25:47;100010.72;;;5.02;100.00
30598;BME280;17365;48.878;8.334;2024-01-07T12:28:13;100015.75;;;4.97;100.00
30598;BME280;17365;48.878;8.334;2024-01-07T12:30:38;100013.78;;;4.87;100.00
30598;BME280;17365;48.878;8.334;2024-01-07T12:33:06;100016.91;;;4.74;100.00
30598;BME280;17365;48.878;8.334;2024-01-07T12:35:31;100018.81;;;4.81;100.00
30598;BME280;17365;48.878;8.334;2024-01-07T12:37:56;100017.53;;;5.00;100.00
30598;BME280;17365;48.878;8.334;2024-01-07T12:40:24;100020.63;;;4.86;100.00
30598;BME280;17365;48.878;8.334;2024-01-07T12:42:49;100019.44;;;4.72;100.00
30598;BME280;17365;48.878;8.334;2024-01-07T12:45:15;100026.31;;;4.73;100.00
30598;BME280;17365;48.878;8.334;2024-01-07T12:47:40;100028.63;;;4.62;100.00
30598;BME280;17365;48.878;8.334;2024-01-07T12:50:06;100027.13;;;4.71;100.00
30598;BME280;17365;48.878;8.334;2024-01-07T12:52:33;100039.09;;;4.35;100.00
30598;BME280;17365;48.878;8.334;2024-01-07T12:54:59;100033.03;;;4.32;100.00
30598;BME280;17365;48.878;8.334;2024-01-07T12:57:24;100029.56;;;4.64;100.00
30598;BME280;17365;48.878;8.334;2024-01-07T12:59:49;100036.56;;;4.72;100.00